Time;durP1;ratioP1;P1;durP2;ratioP2;P2;SDS_P1;SDS_P2;PMS_P1;PMS_P2;Temp;Humidity;BMP_temperature;BMP_pressure;BME280_temperature;BME280_humidity;BME280_pressure;Samples;Min_cycle;Max_cycle;Signal;HPM_P1;HPM_P2
2023/05/20 00:04:40;;;;;;;5.80;4.47;;;;;;;11.70;100.00;102518.50;10336193;28;20077;-74
2023/05/20 00:09:41;;;;;;;13.98;5.80;;;;;;;11.65;100.00;102515.44;10340729;28;20046;-73
2023/05/20 00:14:41;;;;;;;10.55;4.93;;;;;;;11.64;100.00;102509.16;10340723;28;20414;-73
2023/05/20 00:19:42;;;;;;;10.82;6.15;;;;;;;11.63;100.00;102525.59;10355464;28;20034;-73
2023/05/20 00:24:42;;;;;;;12.73;4.88;;;;;;;11.52;100.00;102513.19;10340247;28;20040;-73
2023/05/20 00:29:42;;;;;;;9.13;4.50;;;;;;;11.49;100.00;102509.97;10340312;28;20049;-73
2023/05/20 00:34:43;;;;;;;13.88;4.60;;;;;;;11.47;100.00;102518.25;10354250;28;20121;-73
2023/05/20 00:39:43;;;;;;;8.30;5.22;;;;;;;11.44;100.00;102523.16;10339821;28;20430;-73
2023/05/20 00:44:44;;;;;;;19.33;6.05;;;;;;;11.37;100.00;102510.25;10339781;28;20137;-74
2023/05/20 00:49:45;;;;;;;8.63;5.15;;;;;;;11.35;100.00;102514.97;10321580;28;20153;-73
2023/05/20 00:54:45;;;;;;;15.45;5.32;;;;;;;11.30;100.00;102505.66;10339228;28;20121;-74
2023/05/20 00:59:46;;;;;;;10.07;5.72;;;;;;;11.25;100.00;102500.72;10353629;28;20425;-73
2023/05/20 01:04:46;;;;;;;6.22;5.63;;;;;;;11.23;100.00;102494.63;10338418;28;20065;-73
2023/05/20 01:09:47;;;;;;;10.27;5.30;;;;;;;11.17;100.00;102495.25;10338962;28;20050;-73
2023/05/20 01:14:56;;;;;;;14.32;5.88;;;;;;;11.11;100.00;102480.50;10353251;28;20054;-73
2023/05/20 01:19:56;;;;;;;8.68;5.10;;;;;;;11.06;100.00;102490.13;10337845;28;20034;-73
2023/05/20 01:24:56;;;;;;;10.02;6.10;;;;;;;10.99;100.00;102486.34;10336476;28;20088;-73
2023/05/20 01:29:57;;;;;;;6.88;6.20;;;;;;;10.97;100.00;102481.06;10337260;28;20065;-73
2023/05/20 01:34:57;;;;;;;9.45;5.80;;;;;;;10.92;100.00;102476.16;10336965;28;20038;-73
2023/05/20 01:39:58;;;;;;;22.25;6.68;;;;;;;10.87;100.00;102481.19;10320762;28;20034;-74
2023/05/20 01:44:59;;;;;;;10.45;7.07;;;;;;;10.82;100.00;102472.72;10336883;28;20117;-73
2023/05/20 01:49:59;;;;;;;10.30;6.70;;;;;;;10.77;100.00;102472.34;10336224;28;20042;-73
2023/05/20 01:55:00;;;;;;;7.50;5.90;;;;;;;10.72;100.00;102463.84;10336706;28;20034;-73
2023/05/20 02:00:01;;;;;;;12.00;7.50;;;;;;;10.69;100.00;102458.75;10337539;28;20038;-73
2023/05/20 02:05:01;;;;;;;17.40;5.88;;;;;;;10.73;100.00;102457.41;10336390;28;20046;-73
2023/05/20 02:10:02;;;;;;;11.43;6.70;;;;;;;10.74;100.00;102456.41;10351232;28;20471;-73
2023/05/20 02:15:04;;;;;;;7.28;5.93;;;;;;;10.78;100.00;102460.47;10336071;28;20050;-73
2023/05/20 02:20:06;;;;;;;12.45;5.95;;;;;;;10.69;100.00;102467.72;10335183;28;20030;-73
2023/05/20 02:25:07;;;;;;;7.90;5.75;;;;;;;10.66;100.00;102465.34;10333438;28;20039;-77
2023/05/20 02:30:08;;;;;;;13.18;7.90;;;;;;;10.60;100.00;102465.13;10334524;28;20046;-77
2023/05/20 02:35:08;;;;;;;18.75;6.85;;;;;;;10.59;100.00;102452.56;10334407;28;20431;-77
2023/05/20 02:40:09;;;;;;;12.57;6.75;;;;;;;10.58;100.00;102446.31;10334696;28;20042;-77
2023/05/20 02:45:10;;;;;;;18.23;7.35;;;;;;;10.61;100.00;102450.56;10351661;28;20042;-77
2023/05/20 02:50:10;;;;;;;17.88;7.93;;;;;;;10.66;100.00;102454.50;10336434;28;20410;-79
2023/05/20 02:55:11;;;;;;;7.70;7.03;;;;;;;10.76;100.00;102451.69;10351682;28;20049;-77
2023/05/20 03:00:12;;;;;;;9.82;6.47;;;;;;;10.81;100.00;102454.75;10342347;28;20124;-77
2023/05/20 03:05:13;;;;;;;7.65;6.82;;;;;;;10.84;100.00;102449.00;10369320;28;20490;-78
2023/05/20 03:10:14;;;;;;;11.00;8.45;;;;;;;10.88;100.00;102458.53;10346811;28;20049;-78
2023/05/20 03:15:14;;;;;;;7.32;6.47;;;;;;;10.92;100.00;102451.75;10338195;28;20030;-78
2023/05/20 03:20:16;;;;;;;14.77;7.85;;;;;;;10.96;100.00;102457.72;10350982;28;20031;-77
2023/05/20 03:25:17;;;;;;;13.30;7.35;;;;;;;10.99;100.00;102445.69;10317679;28;20038;-77
2023/05/20 03:30:17;;;;;;;13.65;6.47;;;;;;;11.01;100.00;102451.78;10349552;28;20038;-78
2023/05/20 03:35:18;;;;;;;10.65;6.22;;;;;;;10.96;100.00;102449.56;10333998;28;20470;-78
2023/05/20 03:40:21;;;;;;;9.82;6.57;;;;;;;10.96;100.00;102452.28;10345725;28;20038;-77
2023/05/20 03:45:22;;;;;;;13.07;7.07;;;;;;;10.96;100.00;102455.00;10345210;28;20038;-78
2023/05/20 03:50:22;;;;;;;7.43;6.72;;;;;;;10.97;100.00;102455.84;10362616;28;20046;-77
2023/05/20 03:55:23;;;;;;;9.48;6.10;;;;;;;10.96;100.00;102446.03;10362216;28;20040;-78
2023/05/20 04:00:24;;;;;;;12.63;7.50;;;;;;;10.91;100.00;102441.06;10361947;28;20097;-79
2023/05/20 04:05:25;;;;;;;7.88;6.22;;;;;;;10.89;100.00;102441.25;10345819;28;20065;-78
2023/05/20 04:10:25;;;;;;;14.15;6.97;;;;;;;10.93;100.00;102444.47;10345405;28;20125;-77
2023/05/20 04:15:28;;;;;;;12.45;8.52;;;;;;;10.98;100.00;102446.72;10345218;28;20073;-77
2023/05/20 04:20:29;;;;;;;9.00;7.07;;;;;;;11.00;100.00;102441.97;10345409;28;20038;-78
2023/05/20 04:25:29;;;;;;;15.05;6.93;;;;;;;10.99;100.00;102442.97;10361980;28;20034;-78
2023/05/20 04:30:32;;;;;;;13.85;7.50;;;;;;;11.01;100.00;102447.25;10344551;28;20433;-78
2023/05/20 04:35:33;;;;;;;13.98;7.97;;;;;;;11.14;100.00;102449.50;10362316;28;20080;-78
2023/05/20 04:40:34;;;;;;;11.57;6.30;;;;;;;11.20;100.00;102445.25;10345028;28;20045;-78
2023/05/20 04:45:35;;;;;;;12.00;7.43;;;;;;;11.19;100.00;102439.00;10346118;28;20037;-78
2023/05/20 04:50:36;;;;;;;9.55;7.60;;;;;;;11.21;100.00;102449.69;10341399;28;20038;-79
2023/05/20 04:55:37;;;;;;;11.52;7.65;;;;;;;11.36;100.00;102446.19;10321703;28;20042;-78
2023/05/20 05:00:38;;;;;;;19.80;7.20;;;;;;;11.60;100.00;102447.25;10340056;28;20039;-77
2023/05/20 05:05:39;;;;;;;14.30;8.43;;;;;;;11.73;100.00;102446.75;10355738;28;20034;-77
2023/05/20 05:10:39;;;;;;;9.25;6.95;;;;;;;11.71;100.00;102444.22;10339092;28;20046;-77
2023/05/20 05:15:40;;;;;;;15.40;7.07;;;;;;;11.85;100.00;102443.59;10337516;28;20398;-77
2023/05/20 05:20:40;;;;;;;14.55;6.60;;;;;;;12.10;100.00;102444.47;10337581;28;20049;-78
2023/05/20 05:25:41;;;;;;;15.00;7.05;;;;;;;12.37;100.00;102444.25;10360334;28;20081;-79
2023/05/20 05:30:41;;;;;;;9.80;6.95;;;;;;;12.78;100.00;102437.72;10353119;28;20074;-75
2023/05/20 05:35:42;;;;;;;10.05;6.25;;;;;;;12.96;100.00;102440.22;10341727;28;20085;-78
2023/05/20 05:40:42;;;;;;;17.98;6.03;;;;;;;12.86;100.00;102439.59;10353086;28;20125;-77
2023/05/20 05:45:43;;;;;;;6.95;5.70;;;;;;;12.84;100.00;102428.03;10339141;28;20045;-78
2023/05/20 05:50:44;;;;;;;9.93;5.90;;;;;;;13.55;100.00;102431.63;10335640;28;20150;-79
2023/05/20 05:55:46;;;;;;;10.13;7.00;;;;;;;14.43;100.00;102427.50;10336092;28;20035;-78
2023/05/20 06:00:46;;;;;;;16.88;7.53;;;;;;;14.24;100.00;102428.03;10350447;28;20371;-79
2023/05/20 06:05:46;;;;;;;21.60;7.18;;;;;;;13.90;100.00;102434.78;10351998;28;20034;-79
2023/05/20 06:10:50;;;;;;;8.27;5.43;;;;;;;14.79;100.00;102438.56;10336061;28;20092;-79
2023/05/20 06:15:52;;;;;;;9.60;7.00;;;;;;;15.58;100.00;102432.44;10336434;28;20088;-78
2023/05/20 06:20:56;;;;;;;6.82;6.13;;;;;;;15.23;100.00;102429.50;10335030;28;20092;-79
2023/05/20 06:25:57;;;;;;;6.45;5.38;;;;;;;15.21;100.00;102431.56;10336424;28;20041;-78
2023/05/20 06:30:58;;;;;;;12.50;6.13;;;;;;;15.69;100.00;102431.09;10336929;28;20038;-78
2023/05/20 06:36:00;;;;;;;8.15;5.57;;;;;;;17.09;99.22;102430.28;10352416;28;20051;-78
2023/05/20 06:41:00;;;;;;;4.90;4.40;;;;;;;17.79;91.01;102423.59;10334951;28;20137;-78
2023/05/20 06:46:01;;;;;;;9.73;4.97;;;;;;;18.23;88.23;102413.91;10351152;28;20441;-78
2023/05/20 06:51:01;;;;;;;11.15;5.15;;;;;;;18.64;84.86;102410.06;10350230;28;20386;-78
2023/05/20 06:56:02;;;;;;;9.00;4.75;;;;;;;19.09;76.28;102403.84;10350090;28;20065;-79
2023/05/20 07:01:02;;;;;;;4.78;4.38;;;;;;;19.50;79.34;102409.75;10349803;28;20116;-80
2023/05/20 07:06:03;;;;;;;10.45;4.63;;;;;;;19.89;73.46;102404.25;10316896;28;20078;-79
2023/05/20 07:11:03;;;;;;;6.60;4.18;;;;;;;20.07;63.99;102396.06;10349833;28;20030;-75
2023/05/20 07:16:04;;;;;;;4.38;3.63;;;;;;;19.95;67.03;102400.59;10334710;28;20045;-79
2023/05/20 07:21:05;;;;;;;5.00;2.92;;;;;;;20.52;64.61;102400.53;10304426;28;20460;-79
2023/05/20 07:26:07;;;;;;;3.53;3.25;;;;;;;21.15;65.06;102391.94;10357561;28;20037;-80
2023/05/20 07:31:07;;;;;;;4.65;4.22;;;;;;;21.89;60.90;102373.31;10375224;28;20129;-81
2023/05/20 07:36:09;;;;;;;5.40;3.00;;;;;;;22.04;58.50;102368.13;10357348;28;20041;-80
2023/05/20 07:41:10;;;;;;;4.22;3.38;;;;;;;22.21;56.83;102368.31;10374593;28;20122;-79
2023/05/20 07:46:10;;;;;;;5.70;3.53;;;;;;;22.15;58.59;102373.94;10374963;28;20466;-81
2023/05/20 07:51:11;;;;;;;5.40;4.28;;;;;;;21.78;56.18;102374.94;10393311;28;20124;-79
2023/05/20 07:56:11;;;;;;;3.80;3.08;;;;;;;22.49;53.51;102358.44;10402158;28;20133;-80
2023/05/20 08:01:12;;;;;;;6.00;3.72;;;;;;;22.20;52.61;102358.34;10412664;28;20076;-78
2023/05/20 08:06:12;;;;;;;4.90;3.08;;;;;;;22.72;54.53;102363.13;10398419;28;20045;-81
2023/05/20 08:11:13;;;;;;;6.40;3.70;;;;;;;22.96;51.02;102348.16;10386291;28;20120;-77
2023/05/20 08:16:13;;;;;;;3.13;2.85;;;;;;;23.85;52.05;102357.84;10378298;28;20379;-80
2023/05/20 08:21:14;;;;;;;9.18;3.20;;;;;;;23.65;47.46;102361.91;10375116;28;20116;-80
2023/05/20 08:26:15;;;;;;;4.95;3.38;;;;;;;23.40;48.11;102359.50;10396085;28;20116;-80
2023/05/20 08:31:16;;;;;;;6.30;3.33;;;;;;;23.52;47.10;102350.34;10380460;28;20026;-80
2023/05/20 08:36:18;;;;;;;3.22;3.00;;;;;;;23.53;47.06;102346.47;10395746;28;20030;-79
2023/05/20 08:41:21;;;;;;;5.07;3.13;;;;;;;23.73;45.63;102346.84;10364012;28;20058;-79
2023/05/20 08:46:21;;;;;;;4.35;2.42;;;;;;;23.48;46.47;102338.91;10382220;28;20520;-80
2023/05/20 08:51:22;;;;;;;3.85;3.15;;;;;;;23.85;44.27;102331.00;10363321;28;20044;-79
2023/05/20 08:56:25;;;;;;;3.58;3.28;;;;;;;24.01;44.31;102331.25;10378752;28;20065;-80
2023/05/20 09:01:26;;;;;;;2.70;2.45;;;;;;;24.41;45.76;102332.94;10394792;28;20041;-80
2023/05/20 09:06:27;;;;;;;8.20;2.33;;;;;;;24.30;42.29;102330.03;10379477;28;20041;-79
2023/05/20 09:11:27;;;;;;;3.67;2.25;;;;;;;23.58;43.05;102324.41;10379944;28;20038;-79
2023/05/20 09:16:28;;;;;;;6.82;2.03;;;;;;;24.24;42.89;102331.03;10381126;28;20545;-79
2023/05/20 09:21:28;;;;;;;2.72;2.53;;;;;;;24.52;41.59;102312.63;10395962;28;20042;-79
2023/05/20 09:26:29;;;;;;;11.38;2.72;;;;;;;24.97;42.40;102309.56;10377940;28;20545;-72
2023/05/20 09:31:30;;;;;;;2.38;2.28;;;;;;;25.07;42.24;102306.06;10361227;28;20132;-72
2023/05/20 09:36:30;;;;;;;2.17;2.08;;;;;;;25.10;40.35;102300.00;10394519;28;20036;-72
2023/05/20 09:42:16;;;;;;;3.58;3.05;;;;;;;24.69;40.74;102295.94;10377220;28;20080;-79
2023/05/20 09:47:16;;;;;;;6.95;3.30;;;;;;;24.98;41.19;102297.41;10378433;28;20049;-75
2023/05/20 09:52:17;;;;;;;2.03;1.92;;;;;;;24.46;42.43;102295.09;10377077;28;20042;-74
2023/05/20 09:57:17;;;;;;;2.90;2.33;;;;;;;25.28;38.50;102290.53;10376001;28;20037;-76
2023/05/20 10:02:18;;;;;;;2.65;2.15;;;;;;;24.56;38.67;102280.56;10377811;28;20065;-78
2023/05/20 10:07:42;;;;;;;2.15;2.05;;;;;;;23.76;39.24;102284.66;10376528;28;20037;-77
2023/05/20 10:12:49;;;;;;;3.08;2.20;;;;;;;24.58;41.62;102248.75;10393127;28;20049;-76
2023/05/20 10:17:52;;;;;;;7.03;2.22;;;;;;;24.41;40.94;102263.72;10376938;28;20042;-75
2023/05/20 10:22:56;;;;;;;2.13;2.03;;;;;;;25.30;37.99;102271.66;10375983;28;20444;-78
2023/05/20 10:28:33;;;;;;;2.45;2.30;;;;;;;24.98;37.74;102266.06;10393682;28;20541;-72
2023/05/20 10:33:42;;;;;;;5.43;2.23;;;;;;;24.20;37.37;102269.00;10378214;28;20113;-76
2023/05/20 10:38:54;;;;;;;4.32;2.17;;;;;;;23.88;38.00;102243.91;10377046;28;20133;-77
2023/05/20 10:44:04;;;;;;;5.60;2.42;;;;;;;23.64;38.87;102237.69;10374157;28;20033;-80
2023/05/20 10:49:04;;;;;;;5.40;2.22;;;;;;;24.24;38.41;102230.56;10390643;28;20556;-81
2023/05/20 10:54:08;;;;;;;2.40;2.22;;;;;;;24.69;37.08;102224.75;10390872;28;20036;-81
2023/05/20 10:59:08;;;;;;;4.00;2.60;;;;;;;24.72;38.02;102227.00;10389527;28;20045;-82
2023/05/20 11:04:08;;;;;;;1.90;1.80;;;;;;;23.48;38.93;102222.78;10373336;28;20034;-82
2023/05/20 11:09:09;;;;;;;4.68;2.10;;;;;;;23.42;39.45;102219.13;10359515;28;20044;-81
2023/05/20 11:14:13;;;;;;;3.95;2.40;;;;;;;23.76;38.29;102218.28;10373549;28;20065;-81
2023/05/20 11:19:20;;;;;;;3.47;2.88;;;;;;;24.25;37.69;102202.63;10374153;28;20033;-79
2023/05/20 11:24:27;;;;;;;3.28;2.47;;;;;;;25.06;36.86;102201.84;10395324;28;20095;-81
2023/05/20 11:29:31;;;;;;;3.08;2.08;;;;;;;23.95;37.77;102200.28;10383275;28;20034;-81
2023/05/20 11:34:38;;;;;;;2.95;2.58;;;;;;;24.52;37.94;102193.56;10376265;28;20390;-81
2023/05/20 11:39:39;;;;;;;7.97;2.58;;;;;;;25.09;37.33;102193.00;10320365;28;20058;-83
2023/05/20 11:44:43;;;;;;;3.58;2.55;;;;;;;23.16;39.28;102189.38;10373153;28;20138;-82
2023/05/20 11:49:47;;;;;;;2.08;1.95;;;;;;;24.03;37.37;102183.25;10389715;28;20045;-82
2023/05/20 11:54:55;;;;;;;3.42;2.90;;;;;;;23.75;36.94;102177.88;10392057;28;20038;-78
2023/05/20 11:59:56;;;;;;;6.60;2.13;;;;;;;23.27;37.92;102177.41;10394091;28;20034;-81
2023/05/20 12:04:57;;;;;;;2.92;1.95;;;;;;;22.60;40.29;102169.84;10397561;28;20045;-79
2023/05/20 12:09:58;;;;;;;4.35;2.03;;;;;;;23.35;39.68;102171.44;10381808;28;20045;-80
2023/05/20 12:14:59;;;;;;;4.25;2.35;;;;;;;24.10;38.44;102161.75;10383340;28;20042;-81
2023/05/20 12:20:01;;;;;;;2.00;1.90;;;;;;;24.18;38.09;102143.84;10401336;28;20030;-80
2023/05/20 12:25:05;;;;;;;1.98;1.85;;;;;;;23.67;39.49;102162.50;10401319;28;20053;-82
2023/05/20 12:30:08;;;;;;;7.47;1.98;;;;;;;23.46;38.82;102157.78;10365403;28;20038;-81
2023/05/20 12:35:09;;;;;;;1.85;1.75;;;;;;;23.75;38.04;102153.81;10396671;28;20484;-79
2023/05/20 12:40:11;;;;;;;3.03;2.72;;;;;;;22.69;40.57;102162.84;10363897;28;20062;-79
2023/05/20 12:45:12;;;;;;;3.17;2.85;;;;;;;22.82;39.83;102147.88;10379956;28;20127;-80
2023/05/20 12:50:16;;;;;;;7.82;3.00;;;;;;;22.60;41.29;102149.69;10379930;28;20125;-80
2023/05/20 12:55:16;;;;;;;2.97;2.78;;;;;;;22.90;39.85;102139.16;10382771;28;20044;-79
2023/05/20 13:00:18;;;;;;;4.82;3.00;;;;;;;22.40;40.68;102147.34;10399246;28;20080;-80
2023/05/20 13:05:20;;;;;;;7.18;2.63;;;;;;;22.20;42.53;102134.84;10415797;28;20030;-81
2023/05/20 13:10:22;;;;;;;2.10;1.90;;;;;;;22.20;41.07;102125.72;10397013;28;20049;-80
2023/05/20 13:15:23;;;;;;;2.35;2.15;;;;;;;23.69;40.75;102118.88;10379083;28;20457;-80
2023/05/20 13:20:23;;;;;;;2.35;1.92;;;;;;;23.69;39.45;102110.59;10379571;28;20159;-80
2023/05/20 13:25:24;;;;;;;2.90;2.35;;;;;;;22.81;40.80;102118.56;10381515;28;20505;-79
2023/05/20 13:30:24;;;;;;;12.30;2.95;;;;;;;22.41;40.80;102122.28;10378924;28;20039;-79
2023/05/20 13:35:25;;;;;;;7.03;2.65;;;;;;;22.19;40.93;102111.09;10377646;28;20462;-79
2023/05/20 13:40:25;;;;;;;3.15;2.28;;;;;;;21.76;42.29;102117.94;10376914;28;20050;-80
2023/05/20 13:45:28;;;;;;;3.20;2.90;;;;;;;22.14;41.92;102115.63;10360561;28;20041;-77
2023/05/20 13:50:29;;;;;;;4.25;2.75;;;;;;;22.00;41.29;102102.13;10378919;28;20140;-79
2023/05/20 13:55:30;;;;;;;2.15;2.05;;;;;;;21.71;41.92;102094.91;10376978;28;20034;-80
2023/05/20 14:00:31;;;;;;;6.07;2.38;;;;;;;21.58;43.25;102094.09;10376312;28;20046;-79
2023/05/20 14:05:34;;;;;;;3.58;2.63;;;;;;;22.61;42.34;102087.84;10378362;28;20050;-80
2023/05/20 14:10:35;;;;;;;1.90;1.80;;;;;;;23.82;40.17;102065.94;10377811;28;20060;-79
2023/05/20 14:15:36;;;;;;;2.45;1.90;;;;;;;23.46;40.32;102080.38;10378476;28;20034;-79
2023/05/20 14:20:40;;;;;;;3.13;2.45;;;;;;;22.81;40.97;102079.91;10374882;28;20041;-81
2023/05/20 14:25:42;;;;;;;2.10;1.98;;;;;;;23.00;41.37;102060.34;10374874;28;20033;-82
2023/05/20 14:30:43;;;;;;;2.33;2.22;;;;;;;23.27;40.69;102053.03;10377307;28;20041;-80
2023/05/20 14:35:51;;;;;;;3.30;2.25;;;;;;;22.32;41.08;102052.00;10391411;28;20040;-81
2023/05/20 14:40:54;;;;;;;3.05;2.13;;;;;;;22.42;42.64;102049.44;10375155;28;20049;-78
2023/05/20 14:46:01;;;;;;;2.47;2.28;;;;;;;22.34;42.14;102044.34;10392063;28;20040;-81
2023/05/20 14:51:01;;;;;;;;;;;;;;;22.73;41.81;102038.91;10391030;28;20481;-82
2023/05/20 14:56:02;;;;;;;2.77;1.80;;;;;;;22.04;42.61;102031.59;10391090;28;19924;-80
2023/05/20 15:01:05;;;;;;;3.08;2.10;;;;;;;22.92;40.53;102036.72;10375208;28;20060;-82
2023/05/20 15:12:06;;;;;;;3.30;2.53;;;;;;;23.19;40.91;102021.13;10408060;28;20494;-82
2023/05/20 15:17:07;;;;;;;10.00;2.63;;;;;;;22.45;42.67;102020.50;10390929;28;20100;-82
2023/05/20 15:22:08;;;;;;;2.45;2.13;;;;;;;23.05;42.06;102005.19;10375595;28;20037;-81
2023/05/20 15:27:10;;;;;;;3.05;2.17;;;;;;;23.04;42.30;102015.41;10364342;28;20044;-81
2023/05/20 15:32:10;;;;;;;6.00;1.88;;;;;;;22.86;41.59;102016.47;10396043;28;20065;-82
2023/05/20 15:37:11;;;;;;;4.57;2.55;;;;;;;22.67;40.95;102001.25;10399040;28;20148;-82
2023/05/20 15:42:16;;;;;;;5.38;2.42;;;;;;;22.47;42.84;102012.81;10361778;28;20038;-81
2023/05/20 15:47:17;;;;;;;4.38;2.15;;;;;;;22.74;42.56;101991.72;10375976;28;20054;-80
2023/05/20 15:52:18;;;;;;;3.90;2.03;;;;;;;21.94;42.61;101981.75;10376164;28;20057;-81
2023/05/20 15:57:24;;;;;;;3.35;2.38;;;;;;;21.74;43.55;101992.41;10375258;28;20120;-82
2023/05/20 16:02:30;;;;;;;5.25;2.72;;;;;;;21.78;43.66;101993.59;10390071;28;20184;-80
2023/05/20 16:07:35;;;;;;;2.00;1.90;;;;;;;21.32;44.48;101987.13;10373830;28;20149;-82
2023/05/20 16:13:05;;;;;;;3.78;2.63;;;;;;;20.90;45.03;101988.13;10373458;28;20271;-81
2023/05/20 16:18:14;;;;;;;2.05;1.95;;;;;;;20.69;45.13;101991.47;10383473;28;20077;-79
2023/05/20 16:23:16;;;;;;;3.13;1.98;;;;;;;20.26;46.39;101980.72;10356204;28;20029;-81
2023/05/20 16:29:05;;;;;;;16.33;2.55;;;;;;;19.97;47.32;101975.03;10372699;28;20033;-81
2023/05/20 16:34:06;;;;;;;2.67;2.38;;;;;;;20.03;47.43;101967.75;10374323;28;20123;-81
2023/05/20 16:39:07;;;;;;;2.88;2.17;;;;;;;19.91;48.25;101968.56;10389207;28;20541;-80
2023/05/20 16:44:18;;;;;;;2.70;2.42;;;;;;;19.86;49.58;101970.34;10372409;28;20033;-81
2023/05/20 16:49:18;;;;;;;2.95;2.72;;;;;;;19.45;52.89;101961.75;10364942;28;20029;-81
2023/05/20 16:54:20;;;;;;;4.38;3.15;;;;;;;19.34;53.44;101968.03;10364142;28;20183;-81
2023/05/20 16:59:20;;;;;;;7.32;2.97;;;;;;;19.35;53.56;101974.38;10381155;28;20429;-81
2023/05/20 17:04:23;;;;;;;6.18;2.78;;;;;;;19.17;55.25;101977.94;10379493;28;20115;-80
2023/05/20 17:09:25;;;;;;;6.22;3.60;;;;;;;19.22;54.72;101969.88;10362708;28;20034;-79
2023/05/20 17:14:26;;;;;;;9.00;3.60;;;;;;;19.20;59.53;101966.50;10377780;28;20030;-81
2023/05/20 17:19:26;;;;;;;4.97;4.07;;;;;;;19.28;61.19;101967.03;10366557;28;20450;-81
2023/05/20 17:24:31;;;;;;;4.45;3.40;;;;;;;19.64;60.88;101979.09;10377903;28;20034;-82
2023/05/20 17:29:32;;;;;;;2.45;2.28;;;;;;;19.49;58.11;101992.34;10394177;28;20409;-80
2023/05/20 17:34:33;;;;;;;5.18;3.20;;;;;;;19.36;58.70;101982.38;10362358;28;20045;-81
2023/05/20 17:39:35;;;;;;;3.85;3.35;;;;;;;19.37;59.82;101975.81;10394055;28;20406;-79
2023/05/20 17:44:35;;;;;;;14.70;3.97;;;;;;;19.53;60.97;101996.34;10378385;28;20034;-82
2023/05/20 17:49:36;;;;;;;5.18;4.03;;;;;;;19.48;61.67;101986.03;10379686;28;20132;-80
2023/05/20 17:54:37;;;;;;;7.30;3.90;;;;;;;19.26;64.69;101987.56;10394368;28;20034;-81
2023/05/20 17:59:40;;;;;;;13.38;3.90;;;;;;;18.96;64.96;101996.56;10360885;28;20038;-81
2023/05/20 18:04:42;;;;;;;6.45;4.03;;;;;;;18.59;67.72;102004.66;10414106;28;20034;-79
2023/05/20 18:09:42;;;;;;;5.47;3.50;;;;;;;18.32;69.58;102008.69;10421653;28;20422;-81
2023/05/20 18:14:43;;;;;;;4.38;3.97;;;;;;;18.09;70.62;102015.59;10381314;28;20030;-81
2023/05/20 18:19:47;;;;;;;4.95;3.97;;;;;;;17.84;72.97;102017.41;10377252;28;20079;-80
2023/05/20 18:24:48;;;;;;;3.90;3.40;;;;;;;17.66;75.00;102016.19;10393219;28;20393;-82
2023/05/20 18:29:49;;;;;;;7.95;3.55;;;;;;;17.56;74.59;102018.56;10359427;28;20038;-80
2023/05/20 18:34:51;;;;;;;6.30;3.17;;;;;;;17.54;71.03;102028.03;10375626;28;20466;-80
2023/05/20 18:39:52;;;;;;;3.72;3.47;;;;;;;17.34;76.41;102012.53;10375662;28;20053;-81
2023/05/20 18:44:52;;;;;;;11.82;4.30;;;;;;;17.24;77.58;102017.59;10376186;28;20054;-80
2023/05/20 18:49:54;;;;;;;7.90;6.35;;;;;;;17.12;78.90;102011.94;10375047;28;20084;-80
2023/05/20 18:54:55;;;;;;;15.65;5.10;;;;;;;17.02;79.58;102002.50;10379021;28;20390;-82
2023/05/20 18:59:55;;;;;;;17.60;4.88;;;;;;;16.96;80.07;102009.66;10375954;28;20093;-80
2023/05/20 19:04:56;;;;;;;4.88;3.90;;;;;;;16.83;82.55;102002.31;10374589;28;20438;-81
2023/05/20 19:09:56;;;;;;;5.93;3.90;;;;;;;16.68;80.83;102002.50;10374037;28;20034;-81
2023/05/20 19:14:58;;;;;;;6.03;3.83;;;;;;;16.58;82.63;102015.75;10391784;28;20094;-81
2023/05/20 19:19:58;;;;;;;6.55;4.05;;;;;;;16.47;83.43;102009.03;10375319;28;20120;-81
2023/05/20 19:24:59;;;;;;;7.35;4.57;;;;;;;16.27;88.09;102011.75;10375737;28;20042;-80
2023/05/20 19:30:00;;;;;;;3.00;2.70;;;;;;;16.14;87.39;102014.44;10390209;28;20038;-81
2023/05/20 19:35:00;;;;;;;6.50;3.40;;;;;;;16.03;84.40;102013.16;10373463;28;20095;-81
2023/05/20 19:40:01;;;;;;;6.15;4.10;;;;;;;15.91;86.05;102023.00;10373651;28;20065;-80
2023/05/20 19:45:01;;;;;;;7.00;4.38;;;;;;;15.81;83.99;102023.41;10374974;28;20050;-80
2023/05/20 19:50:02;;;;;;;7.20;4.45;;;;;;;15.71;85.33;102022.94;10390715;28;20042;-80
2023/05/20 19:55:03;;;;;;;4.88;3.95;;;;;;;15.62;88.50;102020.56;10389827;28;20038;-82
2023/05/20 20:00:05;;;;;;;8.77;4.45;;;;;;;15.58;88.46;102023.69;10375565;28;20394;-81
2023/05/20 20:05:07;;;;;;;5.28;3.85;;;;;;;15.47;87.52;102017.97;10388902;28;20038;-81
2023/05/20 20:10:09;;;;;;;15.23;3.92;;;;;;;15.39;88.25;102029.06;10356013;28;20604;-80
2023/05/20 20:15:10;;;;;;;8.10;3.80;;;;;;;15.30;88.96;102031.13;10373156;28;20126;-81
2023/05/20 20:20:12;;;;;;;4.43;4.00;;;;;;;15.21;85.78;102038.59;10374079;28;20034;-80
2023/05/20 20:25:13;;;;;;;4.57;4.03;;;;;;;15.12;87.60;102037.06;10383369;28;20477;-81
2023/05/20 20:30:14;;;;;;;9.15;4.00;;;;;;;15.05;86.80;102042.50;10381500;28;20116;-80
2023/05/20 20:35:14;;;;;;;4.10;3.42;;;;;;;14.98;89.04;102038.88;10409831;28;20494;-81
2023/05/20 20:40:15;;;;;;;8.73;5.28;;;;;;;14.91;86.04;102029.81;10423027;28;20069;-80
2023/05/20 20:45:16;;;;;;;6.72;3.88;;;;;;;14.85;87.84;102019.69;10405169;28;20085;-80
2023/05/20 20:50:17;;;;;;;6.53;3.72;;;;;;;14.77;86.01;102036.19;10395653;28;20069;-82
2023/05/20 20:55:18;;;;;;;11.88;4.20;;;;;;;14.69;85.01;102022.72;10379370;28;20132;-82
2023/05/20 21:00:21;;;;;;;4.55;3.70;;;;;;;14.59;84.80;102032.06;10385865;28;20030;-82
2023/05/20 21:05:25;;;;;;;4.15;3.85;;;;;;;14.49;86.38;102034.28;10378352;28;20042;-78
2023/05/20 21:10:27;;;;;;;4.78;4.25;;;;;;;14.46;87.04;102037.38;10377719;28;20034;-79
2023/05/20 21:15:28;;;;;;;6.78;4.85;;;;;;;14.37;86.11;102041.28;10378693;28;20092;-79
2023/05/20 21:20:30;;;;;;;9.07;4.03;;;;;;;14.28;86.55;102043.28;10379091;28;20524;-79
2023/05/20 21:25:30;;;;;;;5.78;4.18;;;;;;;14.17;87.13;102036.47;10378740;28;20052;-80
2023/05/20 21:30:31;;;;;;;4.88;4.40;;;;;;;14.13;86.67;102037.88;10393851;28;20434;-80
2023/05/20 21:35:31;;;;;;;25.13;4.55;;;;;;;14.04;88.90;102033.63;10360724;28;20112;-78
2023/05/20 21:40:32;;;;;;;3.85;3.50;;;;;;;13.99;89.41;102021.59;10378308;28;20474;-78
2023/05/20 21:45:33;;;;;;;3.38;2.95;;;;;;;13.91;88.09;102015.25;10393813;28;20054;-78
2023/05/20 21:50:33;;;;;;;12.30;3.60;;;;;;;13.85;88.75;102015.16;10376160;28;20042;-78
2023/05/20 21:55:34;;;;;;;7.20;3.50;;;;;;;13.83;92.97;102015.34;10359782;28;20049;-78
2023/05/20 22:00:35;;;;;;;6.38;3.60;;;;;;;13.82;90.45;102021.84;10392728;28;20050;-78
2023/05/20 22:05:35;;;;;;;7.22;4.32;;;;;;;13.77;90.01;102007.09;10392575;28;20037;-77
2023/05/20 22:10:36;;;;;;;5.88;3.90;;;;;;;13.67;90.27;102000.09;10376005;28;20050;-77
2023/05/20 22:15:36;;;;;;;5.07;4.60;;;;;;;13.66;91.46;101989.41;10377702;28;20033;-78
2023/05/20 22:20:37;;;;;;;4.47;4.15;;;;;;;13.57;92.07;101987.81;10360682;28;20053;-78
2023/05/20 22:25:39;;;;;;;4.50;4.10;;;;;;;13.51;89.74;101983.13;10375826;28;20465;-78
2023/05/20 22:30:39;;;;;;;7.10;4.50;;;;;;;13.43;89.15;101984.06;10376120;28;20034;-77
2023/05/20 22:35:40;;;;;;;4.32;4.03;;;;;;;13.34;88.75;101979.78;10375061;28;20034;-77
2023/05/20 22:40:41;;;;;;;9.73;4.15;;;;;;;13.30;89.79;101978.47;10376140;28;20068;-78
2023/05/20 22:45:42;;;;;;;3.35;2.95;;;;;;;13.24;90.05;101977.31;10374835;28;20071;-78
2023/05/20 22:50:45;;;;;;;12.05;4.90;;;;;;;13.17;89.45;101982.66;10375528;28;20056;-81
2023/05/20 22:55:45;;;;;;;6.10;4.97;;;;;;;13.11;90.02;101974.41;10377072;28;20037;-79
2023/05/20 23:00:46;;;;;;;10.07;4.55;;;;;;;12.98;89.54;101981.34;10360282;28;20053;-79
2023/05/20 23:05:47;;;;;;;5.97;5.47;;;;;;;12.92;90.95;101978.53;10359584;28;20038;-80
2023/05/20 23:10:47;;;;;;;7.47;5.82;;;;;;;12.85;91.44;101973.00;10392277;28;20508;-80